x

Capel Curig Saws (03305) Weather Station

4:00pm - Fri 6th Mar 2015 All times are GMT.

  • Wind
    40mph, 55mph gusts
  • Air Temp 48°f
  • Sea Pressure 1024mb
  • Capel Curig Saws
  • Capel Curig Saws

More Historic Weather Station data

Upgrade to MSW Pro to gain access to the past 30 days of data for over 8000 Wavebouys and Weather Stations around the globe.

Join Pro

Comparision Forecast

View Surf forecast
   
Fri 03/06 4:00pm 40 55 mph 1024mb 48f
3:00pm 32 48 mph 1025mb 47f
2:00pm 38 49 mph 1026mb 45f
1:00pm 30 52 mph 1028mb 46f
12:00pm 43 60 mph 1028mb 45f
11:00am 45 57 mph 1028mb 45f
10:00am 39 53 mph 1029mb 44f
9:00am 30 47 mph 1030mb 44f
8:00am 22 40 mph 1031mb 43f
7:00am 16 36 mph 1031mb 42f
6:00am 19 36 mph 1032mb 42f
5:00am 22 38 mph 1032mb 42f
4:00am 24 38 mph 1032mb 43f
3:00am 30 39 mph 1032mb 43f
2:00am 29 45 mph 1032mb 44f
1:00am 30 40 mph 1033mb 44f
12:00am 32 46 mph 1033mb 44f
Thu 03/05 11:00pm 36 46 mph 1033mb 44f
10:00pm 29 39 mph 1034mb 44f
9:00pm 28 37 mph 1034mb 45f
8:00pm 25 33 mph 1034mb 44f
7:00pm 24 39 mph 1034mb 44f
6:00pm 33 44 mph 1034mb 44f
5:00pm 31 41 mph 1034mb 44f
4:00pm 33 44 mph 1034mb 44f
3:00pm 30 44 mph 1035mb 45f
2:00pm 30 43 mph 1035mb 45f
1:00pm 31 46 mph 1035mb 45f
12:00pm 31 41 mph 1035mb 45f
11:00am 31 43 mph 1036mb 45f
10:00am 30 41 mph 1035mb 44f
9:00am 30 44 mph 1036mb 43f
8:00am 29 40 mph 1036mb 44f
7:00am 26 38 mph 1036mb 43f
6:00am 26 40 mph 1036mb 43f
5:00am 26 36 mph 1036mb 43f
4:00am 25 34 mph 1036mb 43f
3:00am 24 37 mph 1036mb 43f
2:00am 17
mph
1037mb 43f
1:00am 14
mph
1037mb 42f
12:00am 8
mph
1038mb 39f
Wed 03/04 11:00pm 14
mph
1038mb 38f
10:00pm 16
mph
1038mb 38f
9:00pm 16
mph
1038mb 39f
8:00pm 10
mph
1038mb 36f
7:00pm 9
mph
1037mb 36f
6:00pm 9
mph
1036mb 39f
5:00pm 15
mph
1035mb 42f
4:00pm 9
mph
1035mb 42f
3:00pm 10
mph
1034mb 43f
2:00pm 16
mph
1033mb 42f
1:00pm 10 22 mph 1032mb 45f
12:00pm 16
mph
1032mb 42f
11:00am 19 29 mph 1031mb 41f
10:00am 19 34 mph 1030mb 40f
9:00am 17 34 mph 1029mb 39f
8:00am 19 31 mph 1028mb 39f
7:00am 18 33 mph 1027mb 38f
6:00am 19 33 mph 1025mb 38f
5:00am 21 38 mph 1024mb 38f
4:00am 23 40 mph 1023mb 38f
Tue 03/03 8:00pm 29 39 mph 1017mb 39f
7:00pm 19 41 mph 1016mb 38f
6:00pm 24 41 mph 1015mb 35f
5:00pm 31 43 mph 1014mb 39f
4:00pm 29 45 mph 1014mb 39f
3:00pm 26 34 mph 1014mb 39f
2:00pm 25 37 mph 1013mb 39f
1:00pm 21 39 mph 1013mb 38f
12:00pm 19 36 mph 1013mb 38f
11:00am 21 32 mph 1012mb 38f
10:00am 23 38 mph 1011mb 37f
9:00am 26 39 mph 1011mb 37f
8:00am 26 39 mph 1010mb 37f
7:00am 26 39 mph 1010mb 37f
6:00am 15
mph
1009mb 37f
5:00am 18 36 mph 1009mb 37f
4:00am 23 31 mph 1009mb 38f
3:00am 23 39 mph 1009mb 38f
2:00am 23 36 mph 1009mb 38f
1:00am 23 41 mph 1010mb 37f
12:00am 28 37 mph 1010mb 37f
Mon 03/02 11:00pm 28 45 mph 1010mb 37f
10:00pm 31 40 mph 1010mb 37f
9:00pm 17 33 mph 1010mb 38f
8:00pm 18 40 mph 1009mb 37f
7:00pm 24 38 mph 1009mb 38f